sensor_id;sensor_type;location;lat;lon;timestamp;temperature;humidity
65291;SHT30;51893;59.754;10.110;2024-01-15T00:00:40;-1.27;64.81
65291;SHT30;51893;59.754;10.110;2024-01-15T00:03:28;-1.30;65.04
65291;SHT30;51893;59.754;10.110;2024-01-15T00:05:57;-1.31;64.90
65291;SHT30;51893;59.754;10.110;2024-01-15T00:08:25;-1.34;65.04
65291;SHT30;51893;59.754;10.110;2024-01-15T00:10:53;-1.35;65.58
65291;SHT30;51893;59.754;10.110;2024-01-15T00:13:21;-1.39;64.60
65291;SHT30;51893;59.754;10.110;2024-01-15T00:15:49;-1.43;64.62
65291;SHT30;51893;59.754;10.110;2024-01-15T00:18:17;-1.48;64.37
65291;SHT30;51893;59.754;10.110;2024-01-15T00:20:46;-1.54;64.15
65291;SHT30;51893;59.754;10.110;2024-01-15T00:23:13;-1.56;64.48
65291;SHT30;51893;59.754;10.110;2024-01-15T00:25:41;-1.60;64.43
65291;SHT30;51893;59.754;10.110;2024-01-15T00:28:10;-1.63;64.72
65291;SHT30;51893;59.754;10.110;2024-01-15T00:30:38;-1.65;64.83
65291;SHT30;51893;59.754;10.110;2024-01-15T00:33:06;-1.68;64.58
65291;SHT30;51893;59.754;10.110;2024-01-15T00:35:34;-1.74;64.39
65291;SHT30;51893;59.754;10.110;2024-01-15T00:38:02;-1.78;64.20
65291;SHT30;51893;59.754;10.110;2024-01-15T00:40:31;-1.79;64.92
65291;SHT30;51893;59.754;10.110;2024-01-15T00:42:59;-1.80;64.94
65291;SHT30;51893;59.754;10.110;2024-01-15T00:45:27;-1.83;64.66
65291;SHT30;51893;59.754;10.110;2024-01-15T00:47:55;-1.83;65.29
65291;SHT30;51893;59.754;10.110;2024-01-15T00:50:24;-1.87;65.30
65291;SHT30;51893;59.754;10.110;2024-01-15T00:52:52;-1.89;65.59
65291;SHT30;51893;59.754;10.110;2024-01-15T00:55:20;-1.91;65.50
65291;SHT30;51893;59.754;10.110;2024-01-15T00:57:48;-1.93;64.89
65291;SHT30;51893;59.754;10.110;2024-01-15T01:00:16;-1.94;65.17
65291;SHT30;51893;59.754;10.110;2024-01-15T01:02:44;-1.98;64.74
65291;SHT30;51893;59.754;10.110;2024-01-15T01:05:12;-2.03;65.12
65291;SHT30;51893;59.754;10.110;2024-01-15T01:07:40;-2.06;64.94
65291;SHT30;51893;59.754;10.110;2024-01-15T01:10:08;-2.10;64.72
65291;SHT30;51893;59.754;10.110;2024-01-15T01:12:36;-2.15;64.86
65291;SHT30;51893;59.754;10.110;2024-01-15T01:15:04;-2.19;64.61
65291;SHT30;51893;59.754;10.110;2024-01-15T01:17:33;-2.19;64.28
65291;SHT30;51893;59.754;10.110;2024-01-15T01:20:02;-2.20;64.35
65291;SHT30;51893;59.754;10.110;2024-01-15T01:22:32;-2.22;64.59
65291;SHT30;51893;59.754;10.110;2024-01-15T01:25:00;-2.29;64.72
65291;SHT30;51893;59.754;10.110;2024-01-15T01:27:28;-2.31;63.32
65291;SHT30;51893;59.754;10.110;2024-01-15T01:29:56;-2.30;63.86
65291;SHT30;51893;59.754;10.110;2024-01-15T01:32:24;-2.32;64.24
65291;SHT30;51893;59.754;10.110;2024-01-15T01:34:52;-2.33;63.93
65291;SHT30;51893;59.754;10.110;2024-01-15T01:37:20;-2.33;64.09
65291;SHT30;51893;59.754;10.110;2024-01-15T01:39:48;-2.40;64.17
65291;SHT30;51893;59.754;10.110;2024-01-15T01:42:16;-2.47;64.42
65291;SHT30;51893;59.754;10.110;2024-01-15T01:44:44;-2.50;64.49
65291;SHT30;51893;59.754;10.110;2024-01-15T01:47:12;-2.54;64.33
65291;SHT30;51893;59.754;10.110;2024-01-15T01:49:42;-2.62;64.87
65291;SHT30;51893;59.754;10.110;2024-01-15T01:52:10;-2.61;64.42
65291;SHT30;51893;59.754;10.110;2024-01-15T01:54:38;-2.61;63.90
65291;SHT30;51893;59.754;10.110;2024-01-15T01:57:07;-2.60;63.99
65291;SHT30;51893;59.754;10.110;2024-01-15T01:59:36;-2.62;64.22
65291;SHT30;51893;59.754;10.110;2024-01-15T02:02:04;-2.62;64.36
65291;SHT30;51893;59.754;10.110;2024-01-15T02:04:33;-2.70;64.49
65291;SHT30;51893;59.754;10.110;2024-01-15T02:07:01;-2.84;64.96
65291;SHT30;51893;59.754;10.110;2024-01-15T02:09:30;-2.90;65.00
65291;SHT30;51893;59.754;10.110;2024-01-15T02:12:00;-2.94;64.79
65291;SHT30;51893;59.754;10.110;2024-01-15T02:14:28;-2.98;64.80
65291;SHT30;51893;59.754;10.110;2024-01-15T02:16:56;-3.00;64.96
65291;SHT30;51893;59.754;10.110;2024-01-15T02:19:24;-3.01;64.87
65291;SHT30;51893;59.754;10.110;2024-01-15T02:21:52;-3.10;64.59
65291;SHT30;51893;59.754;10.110;2024-01-15T02:24:20;-3.13;64.44
65291;SHT30;51893;59.754;10.110;2024-01-15T02:26:50;-3.17;64.31
65291;SHT30;51893;59.754;10.110;2024-01-15T02:29:18;-3.22;64.44
65291;SHT30;51893;59.754;10.110;2024-01-15T02:31:47;-3.27;64.45
65291;SHT30;51893;59.754;10.110;2024-01-15T02:34:15;-3.32;64.33
65291;SHT30;51893;59.754;10.110;2024-01-15T02:36:43;-3.35;64.33
65291;SHT30;51893;59.754;10.110;2024-01-15T02:39:11;-3.38;64.59
65291;SHT30;51893;59.754;10.110;2024-01-15T02:41:39;-3.39;64.69
65291;SHT30;51893;59.754;10.110;2024-01-15T02:44:07;-3.48;65.01
65291;SHT30;51893;59.754;10.110;2024-01-15T02:46:35;-3.60;65.46
65291;SHT30;51893;59.754;10.110;2024-01-15T02:49:03;-3.74;65.63
65291;SHT30;51893;59.754;10.110;2024-01-15T02:51:31;-3.84;66.13
65291;SHT30;51893;59.754;10.110;2024-01-15T02:53:59;-3.87;66.44
65291;SHT30;51893;59.754;10.110;2024-01-15T02:56:26;-3.97;66.14
65291;SHT30;51893;59.754;10.110;2024-01-15T02:58:55;-4.08;66.81
65291;SHT30;51893;59.754;10.110;2024-01-15T03:01:23;-4.26;67.20
65291;SHT30;51893;59.754;10.110;2024-01-15T03:03:51;-4.66;67.55
65291;SHT30;51893;59.754;10.110;2024-01-15T03:06:19;-4.74;68.19
65291;SHT30;51893;59.754;10.110;2024-01-15T03:08:47;-4.88;68.61
65291;SHT30;51893;59.754;10.110;2024-01-15T03:11:15;-5.00;69.34
65291;SHT30;51893;59.754;10.110;2024-01-15T03:13:43;-5.04;69.61
65291;SHT30;51893;59.754;10.110;2024-01-15T03:16:10;-5.03;69.49
65291;SHT30;51893;59.754;10.110;2024-01-15T03:18:39;-5.04;69.62
65291;SHT30;51893;59.754;10.110;2024-01-15T03:21:07;-5.11;69.88
65291;SHT30;51893;59.754;10.110;2024-01-15T03:23:35;-5.20;70.03
65291;SHT30;51893;59.754;10.110;2024-01-15T03:26:03;-5.28;70.13
65291;SHT30;51893;59.754;10.110;2024-01-15T03:28:31;-5.37;69.87
65291;SHT30;51893;59.754;10.110;2024-01-15T03:30:59;-5.38;70.43
65291;SHT30;51893;59.754;10.110;2024-01-15T03:33:27;-5.55;70.40
65291;SHT30;51893;59.754;10.110;2024-01-15T03:35:55;-5.74;71.07
65291;SHT30;51893;59.754;10.110;2024-01-15T03:38:23;-5.70;71.30
65291;SHT30;51893;59.754;10.110;2024-01-15T03:40:51;-5.65;71.13
65291;SHT30;51893;59.754;10.110;2024-01-15T03:43:19;-5.68;71.19
65291;SHT30;51893;59.754;10.110;2024-01-15T03:45:47;-5.67;70.77
65291;SHT30;51893;59.754;10.110;2024-01-15T03:48:15;-5.69;70.75
65291;SHT30;51893;59.754;10.110;2024-01-15T03:50:44;-5.69;70.50
65291;SHT30;51893;59.754;10.110;2024-01-15T03:53:11;-5.77;69.85
65291;SHT30;51893;59.754;10.110;2024-01-15T03:55:39;-5.94;69.40
65291;SHT30;51893;59.754;10.110;2024-01-15T03:58:07;-6.03;69.24
65291;SHT30;51893;59.754;10.110;2024-01-15T04:00:35;-6.09;69.16
65291;SHT30;51893;59.754;10.110;2024-01-15T04:03:03;-6.07;69.17
65291;SHT30;51893;59.754;10.110;2024-01-15T04:05:31;-5.99;68.72
65291;SHT30;51893;59.754;10.110;2024-01-15T04:07:59;-6.01;68.61
65291;SHT30;51893;59.754;10.110;2024-01-15T04:10:27;-6.08;69.05
65291;SHT30;51893;59.754;10.110;2024-01-15T04:12:55;-6.13;69.42
65291;SHT30;51893;59.754;10.110;2024-01-15T04:15:23;-6.26;69.40
65291;SHT30;51893;59.754;10.110;2024-01-15T04:17:51;-6.49;69.44
65291;SHT30;51893;59.754;10.110;2024-01-15T04:20:20;-6.39;69.82
65291;SHT30;51893;59.754;10.110;2024-01-15T04:22:52;-6.27;69.28
65291;SHT30;51893;59.754;10.110;2024-01-15T04:25:20;-6.37;68.83
65291;SHT30;51893;59.754;10.110;2024-01-15T04:27:47;-6.60;69.03
65291;SHT30;51893;59.754;10.110;2024-01-15T04:30:16;-6.67;69.62
65291;SHT30;51893;59.754;10.110;2024-01-15T04:32:45;-6.67;69.77
65291;SHT30;51893;59.754;10.110;2024-01-15T04:35:13;-6.72;70.09
65291;SHT30;51893;59.754;10.110;2024-01-15T04:37:41;-6.85;70.29
65291;SHT30;51893;59.754;10.110;2024-01-15T04:40:09;-6.95;69.95
65291;SHT30;51893;59.754;10.110;2024-01-15T04:42:37;-7.18;69.55
65291;SHT30;51893;59.754;10.110;2024-01-15T04:45:05;-7.27;69.79
65291;SHT30;51893;59.754;10.110;2024-01-15T04:47:33;-7.12;70.33
65291;SHT30;51893;59.754;10.110;2024-01-15T04:50:01;-7.08;69.95
65291;SHT30;51893;59.754;10.110;2024-01-15T04:52:29;-7.21;69.15
65291;SHT30;51893;59.754;10.110;2024-01-15T04:54:57;-7.25;69.14
65291;SHT30;51893;59.754;10.110;2024-01-15T04:57:25;-7.36;69.54
65291;SHT30;51893;59.754;10.110;2024-01-15T04:59:53;-7.33;69.58
65291;SHT30;51893;59.754;10.110;2024-01-15T05:02:20;-7.28;69.47
65291;SHT30;51893;59.754;10.110;2024-01-15T05:04:49;-7.51;69.30
65291;SHT30;51893;59.754;10.110;2024-01-15T05:07:16;-7.61;69.87
65291;SHT30;51893;59.754;10.110;2024-01-15T05:09:44;-7.57;70.29
65291;SHT30;51893;59.754;10.110;2024-01-15T05:12:13;-7.56;70.45
65291;SHT30;51893;59.754;10.110;2024-01-15T05:14:41;-7.57;70.47
65291;SHT30;51893;59.754;10.110;2024-01-15T05:17:10;-7.51;70.53
65291;SHT30;51893;59.754;10.110;2024-01-15T05:19:38;-7.45;70.82
65291;SHT30;51893;59.754;10.110;2024-01-15T05:22:06;-7.49;70.91
65291;SHT30;51893;59.754;10.110;2024-01-15T05:24:34;-7.72;70.25
65291;SHT30;51893;59.754;10.110;2024-01-15T05:27:02;-8.04;70.90
65291;SHT30;51893;59.754;10.110;2024-01-15T05:29:30;-8.35;71.44
65291;SHT30;51893;59.754;10.110;2024-01-15T05:31:57;-8.66;71.20
65291;SHT30;51893;59.754;10.110;2024-01-15T05:34:29;-8.78;71.35
65291;SHT30;51893;59.754;10.110;2024-01-15T05:36:57;-8.77;71.36
65291;SHT30;51893;59.754;10.110;2024-01-15T05:39:25;-8.69;70.92
65291;SHT30;51893;59.754;10.110;2024-01-15T05:41:53;-8.60;70.48
65291;SHT30;51893;59.754;10.110;2024-01-15T05:44:21;-8.70;70.30
65291;SHT30;51893;59.754;10.110;2024-01-15T05:46:48;-8.82;70.57
65291;SHT30;51893;59.754;10.110;2024-01-15T05:49:16;-8.75;71.06
65291;SHT30;51893;59.754;10.110;2024-01-15T05:51:44;-8.67;71.28
65291;SHT30;51893;59.754;10.110;2024-01-15T05:54:12;-8.79;71.87
65291;SHT30;51893;59.754;10.110;2024-01-15T05:56:40;-8.86;71.91
65291;SHT30;51893;59.754;10.110;2024-01-15T05:59:08;-8.95;71.43
65291;SHT30;51893;59.754;10.110;2024-01-15T06:01:39;-9.00;71.32
65291;SHT30;51893;59.754;10.110;2024-01-15T06:04:07;-8.95;71.24
65291;SHT30;51893;59.754;10.110;2024-01-15T06:06:35;-8.93;71.36
65291;SHT30;51893;59.754;10.110;2024-01-15T06:09:03;-8.80;71.65
65291;SHT30;51893;59.754;10.110;2024-01-15T06:11:33;-8.75;71.50
65291;SHT30;51893;59.754;10.110;2024-01-15T06:14:02;-8.81;70.61
65291;SHT30;51893;59.754;10.110;2024-01-15T06:16:29;-9.11;70.41
65291;SHT30;51893;59.754;10.110;2024-01-15T06:18:59;-9.33;71.04
65291;SHT30;51893;59.754;10.110;2024-01-15T06:21:27;-9.47;71.64
65291;SHT30;51893;59.754;10.110;2024-01-15T06:23:55;-9.56;72.35
65291;SHT30;51893;59.754;10.110;2024-01-15T06:26:24;-9.74;72.83
65291;SHT30;51893;59.754;10.110;2024-01-15T06:28:52;-9.77;73.76
65291;SHT30;51893;59.754;10.110;2024-01-15T06:31:20;-9.72;73.91
65291;SHT30;51893;59.754;10.110;2024-01-15T06:33:49;-9.76;73.31
65291;SHT30;51893;59.754;10.110;2024-01-15T06:36:17;-9.81;73.13
65291;SHT30;51893;59.754;10.110;2024-01-15T06:38:46;-9.68;73.26
65291;SHT30;51893;59.754;10.110;2024-01-15T06:41:14;-9.46;73.03
65291;SHT30;51893;59.754;10.110;2024-01-15T06:43:42;-9.36;72.79
65291;SHT30;51893;59.754;10.110;2024-01-15T06:46:09;-9.28;72.67
65291;SHT30;51893;59.754;10.110;2024-01-15T06:48:38;-9.49;72.10
65291;SHT30;51893;59.754;10.110;2024-01-15T06:51:06;-9.86;72.78
65291;SHT30;51893;59.754;10.110;2024-01-15T06:53:35;-10.12;73.58
65291;SHT30;51893;59.754;10.110;2024-01-15T06:56:03;-10.17;73.76
65291;SHT30;51893;59.754;10.110;2024-01-15T06:58:31;-10.09;73.57
65291;SHT30;51893;59.754;10.110;2024-01-15T07:01:00;-10.07;73.24
65291;SHT30;51893;59.754;10.110;2024-01-15T07:03:28;-10.12;73.12
65291;SHT30;51893;59.754;10.110;2024-01-15T07:05:56;-10.01;72.94
65291;SHT30;51893;59.754;10.110;2024-01-15T07:08:24;-10.05;72.37
65291;SHT30;51893;59.754;10.110;2024-01-15T07:10:52;-10.05;72.20
65291;SHT30;51893;59.754;10.110;2024-01-15T07:13:20;-9.92;71.61
65291;SHT30;51893;59.754;10.110;2024-01-15T07:15:48;-10.01;71.26
65291;SHT30;51893;59.754;10.110;2024-01-15T07:18:16;-10.13;72.54
65291;SHT30;51893;59.754;10.110;2024-01-15T07:20:44;-10.19;72.87
65291;SHT30;51893;59.754;10.110;2024-01-15T07:23:12;-10.25;73.37
65291;SHT30;51893;59.754;10.110;2024-01-15T07:25:40;-10.23;73.16
65291;SHT30;51893;59.754;10.110;2024-01-15T07:28:08;-10.23;72.42
65291;SHT30;51893;59.754;10.110;2024-01-15T07:30:36;-10.24;72.05
65291;SHT30;51893;59.754;10.110;2024-01-15T07:33:06;-10.26;71.84
65291;SHT30;51893;59.754;10.110;2024-01-15T07:35:34;-10.34;71.70
65291;SHT30;51893;59.754;10.110;2024-01-15T07:38:02;-10.54;71.53
65291;SHT30;51893;59.754;10.110;2024-01-15T07:40:30;-10.64;71.61
65291;SHT30;51893;59.754;10.110;2024-01-15T07:42:58;-10.58;71.49
65291;SHT30;51893;59.754;10.110;2024-01-15T07:45:26;-10.54;71.31
65291;SHT30;51893;59.754;10.110;2024-01-15T07:47:54;-10.58;72.02
65291;SHT30;51893;59.754;10.110;2024-01-15T07:50:22;-10.56;73.44
65291;SHT30;51893;59.754;10.110;2024-01-15T07:52:50;-10.43;73.99
65291;SHT30;51893;59.754;10.110;2024-01-15T07:55:18;-10.42;73.26
65291;SHT30;51893;59.754;10.110;2024-01-15T07:57:46;-10.54;72.31
65291;SHT30;51893;59.754;10.110;2024-01-15T08:00:25;-10.56;72.09
65291;SHT30;51893;59.754;10.110;2024-01-15T08:02:53;-10.52;71.82
65291;SHT30;51893;59.754;10.110;2024-01-15T08:05:21;-10.59;71.41
65291;SHT30;51893;59.754;10.110;2024-01-15T08:07:49;-10.72;72.00
65291;SHT30;51893;59.754;10.110;2024-01-15T08:10:17;-10.72;72.35
65291;SHT30;51893;59.754;10.110;2024-01-15T08:12:45;-10.82;72.34
65291;SHT30;51893;59.754;10.110;2024-01-15T08:15:13;-10.81;72.54
65291;SHT30;51893;59.754;10.110;2024-01-15T08:17:41;-10.68;71.97
65291;SHT30;51893;59.754;10.110;2024-01-15T08:20:10;-10.58;71.48
65291;SHT30;51893;59.754;10.110;2024-01-15T08:22:38;-10.73;71.35
65291;SHT30;51893;59.754;10.110;2024-01-15T08:25:06;-10.81;71.80
65291;SHT30;51893;59.754;10.110;2024-01-15T08:27:37;-10.85;71.96
65291;SHT30;51893;59.754;10.110;2024-01-15T08:30:05;-10.83;72.23
65291;SHT30;51893;59.754;10.110;2024-01-15T08:32:35;-10.78;72.24
65291;SHT30;51893;59.754;10.110;2024-01-15T08:35:08;-10.79;72.41
65291;SHT30;51893;59.754;10.110;2024-01-15T08:37:38;-10.76;72.38
65291;SHT30;51893;59.754;10.110;2024-01-15T08:40:06;-10.81;72.39
65291;SHT30;51893;59.754;10.110;2024-01-15T08:42:36;-10.72;72.45
65291;SHT30;51893;59.754;10.110;2024-01-15T08:45:04;-10.60;73.28
65291;SHT30;51893;59.754;10.110;2024-01-15T08:47:32;-10.34;74.89
65291;SHT30;51893;59.754;10.110;2024-01-15T08:50:01;-10.48;73.38
65291;SHT30;51893;59.754;10.110;2024-01-15T08:52:30;-10.60;73.27
65291;SHT30;51893;59.754;10.110;2024-01-15T08:54:58;-10.71;73.70
65291;SHT30;51893;59.754;10.110;2024-01-15T08:57:27;-10.86;73.97
65291;SHT30;51893;59.754;10.110;2024-01-15T08:59:55;-10.90;74.10
65291;SHT30;51893;59.754;10.110;2024-01-15T09:02:23;-10.77;73.65
65291;SHT30;51893;59.754;10.110;2024-01-15T09:04:51;-10.83;72.80
65291;SHT30;51893;59.754;10.110;2024-01-15T09:07:19;-10.78;72.43
65291;SHT30;51893;59.754;10.110;2024-01-15T09:09:47;-10.86;72.19
65291;SHT30;51893;59.754;10.110;2024-01-15T09:12:16;-10.83;72.06
65291;SHT30;51893;59.754;10.110;2024-01-15T09:14:46;-10.74;72.03
65291;SHT30;51893;59.754;10.110;2024-01-15T09:17:15;-10.57;71.74
65291;SHT30;51893;59.754;10.110;2024-01-15T09:19:43;-10.45;71.45
65291;SHT30;51893;59.754;10.110;2024-01-15T09:22:12;-10.35;71.31
65291;SHT30;51893;59.754;10.110;2024-01-15T09:24:42;-10.33;71.13
65291;SHT30;51893;59.754;10.110;2024-01-15T09:27:10;-10.31;71.58
65291;SHT30;51893;59.754;10.110;2024-01-15T09:29:38;-10.35;71.43
65291;SHT30;51893;59.754;10.110;2024-01-15T09:32:08;-10.37;71.80
65291;SHT30;51893;59.754;10.110;2024-01-15T09:34:36;-10.25;71.69
65291;SHT30;51893;59.754;10.110;2024-01-15T09:37:05;-10.21;71.40
65291;SHT30;51893;59.754;10.110;2024-01-15T09:39:33;-10.11;70.97
65291;SHT30;51893;59.754;10.110;2024-01-15T09:42:00;-10.13;70.59
65291;SHT30;51893;59.754;10.110;2024-01-15T09:44:29;-10.18;71.22
65291;SHT30;51893;59.754;10.110;2024-01-15T09:46:58;-10.19;71.98
65291;SHT30;51893;59.754;10.110;2024-01-15T09:49:26;-10.34;72.32
65291;SHT30;51893;59.754;10.110;2024-01-15T09:51:55;-10.37;72.58
65291;SHT30;51893;59.754;10.110;2024-01-15T09:54:38;-10.47;72.66
65291;SHT30;51893;59.754;10.110;2024-01-15T09:57:08;-10.57;73.03
65291;SHT30;51893;59.754;10.110;2024-01-15T09:59:36;-10.63;73.09
65291;SHT30;51893;59.754;10.110;2024-01-15T10:02:06;-10.60;73.03
65291;SHT30;51893;59.754;10.110;2024-01-15T10:04:35;-10.63;72.71
65291;SHT30;51893;59.754;10.110;2024-01-15T10:07:03;-10.52;72.71
65291;SHT30;51893;59.754;10.110;2024-01-15T10:09:34;-10.32;72.65
65291;SHT30;51893;59.754;10.110;2024-01-15T10:12:02;-9.92;72.64
65291;SHT30;51893;59.754;10.110;2024-01-15T10:14:31;-9.48;71.97
65291;SHT30;51893;59.754;10.110;2024-01-15T10:17:00;-9.27;71.43
65291;SHT30;51893;59.754;10.110;2024-01-15T10:19:30;-9.20;71.05
65291;SHT30;51893;59.754;10.110;2024-01-15T10:21:59;-9.19;71.42
65291;SHT30;51893;59.754;10.110;2024-01-15T10:24:26;-9.07;71.21
65291;SHT30;51893;59.754;10.110;2024-01-15T10:27:05;-8.83;70.77
65291;SHT30;51893;59.754;10.110;2024-01-15T10:29:35;-8.91;70.32
65291;SHT30;51893;59.754;10.110;2024-01-15T10:32:07;-9.09;70.27
65291;SHT30;51893;59.754;10.110;2024-01-15T10:34:40;-9.30;70.42
65291;SHT30;51893;59.754;10.110;2024-01-15T10:37:09;-9.38;70.62
65291;SHT30;51893;59.754;10.110;2024-01-15T10:39:37;-9.45;70.62
65291;SHT30;51893;59.754;10.110;2024-01-15T10:42:06;-9.53;70.57
65291;SHT30;51893;59.754;10.110;2024-01-15T10:44:35;-9.63;70.63
65291;SHT30;51893;59.754;10.110;2024-01-15T10:47:03;-9.60;70.47
65291;SHT30;51893;59.754;10.110;2024-01-15T10:49:32;-9.62;70.22
65291;SHT30;51893;59.754;10.110;2024-01-15T10:52:01;-9.69;70.17
65291;SHT30;51893;59.754;10.110;2024-01-15T10:54:30;-9.84;70.57
65291;SHT30;51893;59.754;10.110;2024-01-15T10:56:59;-10.00;71.21
65291;SHT30;51893;59.754;10.110;2024-01-15T10:59:29;-10.07;71.00
65291;SHT30;51893;59.754;10.110;2024-01-15T11:01:57;-10.09;70.69
65291;SHT30;51893;59.754;10.110;2024-01-15T11:04:27;-10.09;70.30
65291;SHT30;51893;59.754;10.110;2024-01-15T11:06:57;-9.92;69.74
65291;SHT30;51893;59.754;10.110;2024-01-15T11:09:25;-10.11;69.50
65291;SHT30;51893;59.754;10.110;2024-01-15T11:12:06;-10.25;69.87
65291;SHT30;51893;59.754;10.110;2024-01-15T11:14:40;-10.45;69.53
65291;SHT30;51893;59.754;10.110;2024-01-15T11:17:13;-10.59;70.14
65291;SHT30;51893;59.754;10.110;2024-01-15T11:19:46;-10.64;70.74
65291;SHT30;51893;59.754;10.110;2024-01-15T11:25:15;-10.60;71.51
65291;SHT30;51893;59.754;10.110;2024-01-15T11:27:49;-10.52;72.13
65291;SHT30;51893;59.754;10.110;2024-01-15T11:30:24;-10.61;72.40
65291;SHT30;51893;59.754;10.110;2024-01-15T11:32:53;-10.67;73.17
65291;SHT30;51893;59.754;10.110;2024-01-15T11:35:22;-10.67;73.90
65291;SHT30;51893;59.754;10.110;2024-01-15T11:40:37;-10.45;74.28
65291;SHT30;51893;59.754;10.110;2024-01-15T11:43:07;-10.45;74.32
65291;SHT30;51893;59.754;10.110;2024-01-15T11:45:37;-10.50;74.49
65291;SHT30;51893;59.754;10.110;2024-01-15T11:50:42;-10.28;74.79
65291;SHT30;51893;59.754;10.110;2024-01-15T11:56:04;-9.94;74.06
65291;SHT30;51893;59.754;10.110;2024-01-15T11:58:39;-9.76;73.44
65291;SHT30;51893;59.754;10.110;2024-01-15T12:01:07;-9.70;73.16
65291;SHT30;51893;59.754;10.110;2024-01-15T12:03:35;-9.72;73.32
65291;SHT30;51893;59.754;10.110;2024-01-15T12:06:07;-9.64;72.97
65291;SHT30;51893;59.754;10.110;2024-01-15T12:08:36;-9.61;72.08
65291;SHT30;51893;59.754;10.110;2024-01-15T12:11:07;-9.61;71.74
65291;SHT30;51893;59.754;10.110;2024-01-15T12:13:41;-9.69;71.49
65291;SHT30;51893;59.754;10.110;2024-01-15T12:16:09;-9.75;71.55
65291;SHT30;51893;59.754;10.110;2024-01-15T12:18:37;-9.72;71.82
65291;SHT30;51893;59.754;10.110;2024-01-15T12:21:05;-9.74;72.22
65291;SHT30;51893;59.754;10.110;2024-01-15T12:23:33;-9.64;71.71
65291;SHT30;51893;59.754;10.110;2024-01-15T12:26:01;-9.60;70.98
65291;SHT30;51893;59.754;10.110;2024-01-15T12:28:30;-9.56;70.60
65291;SHT30;51893;59.754;10.110;2024-01-15T12:30:58;-9.50;70.15
65291;SHT30;51893;59.754;10.110;2024-01-15T12:33:28;-9.48;69.77
65291;SHT30;51893;59.754;10.110;2024-01-15T12:35:56;-9.70;70.11
65291;SHT30;51893;59.754;10.110;2024-01-15T12:38:24;-9.85;71.33
65291;SHT30;51893;59.754;10.110;2024-01-15T12:40:52;-9.88;71.87
65291;SHT30;51893;59.754;10.110;2024-01-15T12:43:20;-9.87;72.06
65291;SHT30;51893;59.754;10.110;2024-01-15T12:45:50;-9.76;72.31
65291;SHT30;51893;59.754;10.110;2024-01-15T12:48:18;-9.90;72.11
65291;SHT30;51893;59.754;10.110;2024-01-15T12:50:47;-10.01;72.64
65291;SHT30;51893;59.754;10.110;2024-01-15T12:53:15;-9.99;72.10
65291;SHT30;51893;59.754;10.110;2024-01-15T12:55:44;-9.97;71.96
65291;SHT30;51893;59.754;10.110;2024-01-15T12:58:13;-10.02;71.99
65291;SHT30;51893;59.754;10.110;2024-01-15T13:00:42;-9.99;71.40
65291;SHT30;51893;59.754;10.110;2024-01-15T13:03:11;-10.19;71.28
65291;SHT30;51893;59.754;10.110;2024-01-15T13:05:42;-10.24;71.92
65291;SHT30;51893;59.754;10.110;2024-01-15T13:08:10;-10.10;71.89
65291;SHT30;51893;59.754;10.110;2024-01-15T13:10:38;-10.13;71.51
65291;SHT30;51893;59.754;10.110;2024-01-15T13:13:06;-10.17;71.59
65291;SHT30;51893;59.754;10.110;2024-01-15T13:15:34;-10.17;72.09
65291;SHT30;51893;59.754;10.110;2024-01-15T13:18:02;-10.08;71.83
65291;SHT30;51893;59.754;10.110;2024-01-15T13:20:31;-10.11;72.17
65291;SHT30;51893;59.754;10.110;2024-01-15T13:23:00;-10.12;72.46
65291;SHT30;51893;59.754;10.110;2024-01-15T13:25:27;-10.12;72.30
65291;SHT30;51893;59.754;10.110;2024-01-15T13:27:55;-9.96;71.79
65291;SHT30;51893;59.754;10.110;2024-01-15T13:30:23;-9.93;71.47
65291;SHT30;51893;59.754;10.110;2024-01-15T13:32:51;-9.92;71.87
65291;SHT30;51893;59.754;10.110;2024-01-15T13:35:20;-9.82;72.15
65291;SHT30;51893;59.754;10.110;2024-01-15T13:37:48;-9.80;72.74
65291;SHT30;51893;59.754;10.110;2024-01-15T13:40:16;-9.74;72.77
65291;SHT30;51893;59.754;10.110;2024-01-15T13:42:47;-9.79;72.57
65291;SHT30;51893;59.754;10.110;2024-01-15T13:45:16;-9.86;73.47
65291;SHT30;51893;59.754;10.110;2024-01-15T13:47:45;-9.84;73.67
65291;SHT30;51893;59.754;10.110;2024-01-15T13:50:13;-9.87;73.78
65291;SHT30;51893;59.754;10.110;2024-01-15T13:52:42;-9.77;74.04
65291;SHT30;51893;59.754;10.110;2024-01-15T13:55:12;-9.62;73.63
65291;SHT30;51893;59.754;10.110;2024-01-15T13:57:40;-9.49;72.73
65291;SHT30;51893;59.754;10.110;2024-01-15T14:00:09;-9.37;72.17
65291;SHT30;51893;59.754;10.110;2024-01-15T14:02:40;-9.44;71.98
65291;SHT30;51893;59.754;10.110;2024-01-15T14:05:08;-9.53;71.67
65291;SHT30;51893;59.754;10.110;2024-01-15T14:07:36;-9.69;71.70
65291;SHT30;51893;59.754;10.110;2024-01-15T14:10:04;-9.66;71.99
65291;SHT30;51893;59.754;10.110;2024-01-15T14:12:35;-9.54;71.99
65291;SHT30;51893;59.754;10.110;2024-01-15T14:15:07;-9.69;71.53
65291;SHT30;51893;59.754;10.110;2024-01-15T14:17:37;-9.79;71.58
65291;SHT30;51893;59.754;10.110;2024-01-15T14:20:05;-9.73;71.17
65291;SHT30;51893;59.754;10.110;2024-01-15T14:22:34;-9.85;70.66
65291;SHT30;51893;59.754;10.110;2024-01-15T14:25:03;-9.86;71.35
65291;SHT30;51893;59.754;10.110;2024-01-15T14:27:32;-9.90;71.82
65291;SHT30;51893;59.754;10.110;2024-01-15T14:30:00;-9.91;71.53
65291;SHT30;51893;59.754;10.110;2024-01-15T14:32:31;-9.88;71.39
65291;SHT30;51893;59.754;10.110;2024-01-15T14:34:58;-9.83;70.99
65291;SHT30;51893;59.754;10.110;2024-01-15T14:37:27;-9.75;70.69
65291;SHT30;51893;59.754;10.110;2024-01-15T14:39:55;-9.73;70.18
65291;SHT30;51893;59.754;10.110;2024-01-15T14:42:23;-9.80;69.86
65291;SHT30;51893;59.754;10.110;2024-01-15T14:44:54;-9.73;69.99
65291;SHT30;51893;59.754;10.110;2024-01-15T14:47:22;-9.65;69.78
65291;SHT30;51893;59.754;10.110;2024-01-15T14:49:52;-9.80;70.03
65291;SHT30;51893;59.754;10.110;2024-01-15T14:52:20;-10.12;70.61
65291;SHT30;51893;59.754;10.110;2024-01-15T14:54:47;-10.33;72.00
65291;SHT30;51893;59.754;10.110;2024-01-15T14:57:15;-10.31;71.70
65291;SHT30;51893;59.754;10.110;2024-01-15T14:59:43;-10.30;70.82
65291;SHT30;51893;59.754;10.110;2024-01-15T15:02:11;-10.27;70.28
65291;SHT30;51893;59.754;10.110;2024-01-15T15:04:41;-10.27;69.82
65291;SHT30;51893;59.754;10.110;2024-01-15T15:07:16;-10.25;69.55
65291;SHT30;51893;59.754;10.110;2024-01-15T15:09:44;-10.15;69.45
65291;SHT30;51893;59.754;10.110;2024-01-15T15:12:12;-10.04;69.14
65291;SHT30;51893;59.754;10.110;2024-01-15T15:14:40;-9.89;68.91
65291;SHT30;51893;59.754;10.110;2024-01-15T15:17:26;-10.02;68.40
65291;SHT30;51893;59.754;10.110;2024-01-15T15:19:54;-10.10;68.60
65291;SHT30;51893;59.754;10.110;2024-01-15T15:22:22;-9.99;68.02
65291;SHT30;51893;59.754;10.110;2024-01-15T15:24:50;-10.13;68.10
65291;SHT30;51893;59.754;10.110;2024-01-15T15:27:18;-10.07;68.41
65291;SHT30;51893;59.754;10.110;2024-01-15T15:29:46;-10.22;68.30